sensor_id;sensor_type;location;lat;lon;timestamp;pressure;altitude;pressure_sealevel;temperature;humidity
75418;BME280;63997;52.112;5.420;2023-02-22T00:01:18;101701.00;;;6.34;90.71
75418;BME280;63997;52.112;5.420;2023-02-22T00:03:50;101697.84;;;6.32;90.51
75418;BME280;63997;52.112;5.420;2023-02-22T00:06:19;101698.63;;;6.32;90.55
75418;BME280;63997;52.112;5.420;2023-02-22T00:08:46;101698.91;;;6.31;90.52
75418;BME280;63997;52.112;5.420;2023-02-22T00:11:15;101702.63;;;6.30;90.62
75418;BME280;63997;52.112;5.420;2023-02-22T00:13:42;101699.97;;;6.30;90.72
75418;BME280;63997;52.112;5.420;2023-02-22T00:16:17;101703.41;;;6.30;90.73
75418;BME280;63997;52.112;5.420;2023-02-22T00:18:43;101700.47;;;6.32;90.83
75418;BME280;63997;52.112;5.420;2023-02-22T00:21:11;101691.50;;;6.33;90.76
75418;BME280;63997;52.112;5.420;2023-02-22T00:23:43;101690.19;;;6.30;90.83
75418;BME280;63997;52.112;5.420;2023-02-22T00:26:15;101692.03;;;6.30;90.83
75418;BME280;63997;52.112;5.420;2023-02-22T00:28:46;101699.44;;;6.28;90.61
75418;BME280;63997;52.112;5.420;2023-02-22T00:31:13;101696.78;;;6.28;90.68
75418;BME280;63997;52.112;5.420;2023-02-22T00:33:41;101693.63;;;6.31;90.87
75418;BME280;63997;52.112;5.420;2023-02-22T00:36:09;101694.69;;;6.30;90.99
75418;BME280;63997;52.112;5.420;2023-02-22T00:38:36;101699.97;;;6.30;90.98
75418;BME280;63997;52.112;5.420;2023-02-22T00:41:02;101701.03;;;6.29;91.00
75418;BME280;63997;52.112;5.420;2023-02-22T00:43:29;101691.00;;;6.26;90.92
75418;BME280;63997;52.112;5.420;2023-02-22T00:45:55;101694.69;;;6.25;90.98
75418;BME280;63997;52.112;5.420;2023-02-22T00:48:22;101687.84;;;6.24;90.98
75418;BME280;63997;52.112;5.420;2023-02-22T00:50:49;101691.50;;;6.23;90.98
75418;BME280;63997;52.112;5.420;2023-02-22T00:53:18;101676.72;;;6.22;90.95
75418;BME280;63997;52.112;5.420;2023-02-22T00:55:45;101678.31;;;6.23;91.00
75418;BME280;63997;52.112;5.420;2023-02-22T00:58:11;101671.44;;;6.22;91.09
75418;BME280;63997;52.112;5.420;2023-02-22T01:00:39;101674.38;;;6.20;91.04
75418;BME280;63997;52.112;5.420;2023-02-22T01:03:09;101670.94;;;6.20;91.09
75418;BME280;63997;52.112;5.420;2023-02-22T01:05:36;101672.50;;;6.21;91.12
75418;BME280;63997;52.112;5.420;2023-02-22T01:08:04;101659.59;;;6.19;91.19
75418;BME280;63997;52.112;5.420;2023-02-22T01:10:36;101662.22;;;6.19;91.19
75418;BME280;63997;52.112;5.420;2023-02-22T01:13:03;101660.91;;;6.17;91.23
75418;BME280;63997;52.112;5.420;2023-02-22T01:15:36;101665.16;;;6.18;91.17
75418;BME280;63997;52.112;5.420;2023-02-22T01:18:02;101658.25;;;6.17;91.35
75418;BME280;63997;52.112;5.420;2023-02-22T01:20:30;101663.28;;;6.18;91.41
75418;BME280;63997;52.112;5.420;2023-02-22T01:22:59;101662.22;;;6.19;91.34
75418;BME280;63997;52.112;5.420;2023-02-22T01:25:28;101657.22;;;6.18;91.39
75418;BME280;63997;52.112;5.420;2023-02-22T01:27:59;101654.03;;;6.16;91.47
75418;BME280;63997;52.112;5.420;2023-02-22T01:30:28;101651.69;;;6.14;91.43
75418;BME280;63997;52.112;5.420;2023-02-22T01:32:55;101650.88;;;6.14;91.50
75418;BME280;63997;52.112;5.420;2023-02-22T01:35:26;101653.53;;;6.14;91.61
75418;BME280;63997;52.112;5.420;2023-02-22T01:37:53;101650.88;;;6.14;91.61
75418;BME280;63997;52.112;5.420;2023-02-22T01:40:27;101643.25;;;6.12;91.65
75418;BME280;63997;52.112;5.420;2023-02-22T01:42:55;101636.91;;;6.13;91.53
75418;BME280;63997;52.112;5.420;2023-02-22T01:48:15;101638.22;;;6.05;91.29
75418;BME280;63997;52.112;5.420;2023-02-22T01:50:47;101627.66;;;6.05;91.48
75418;BME280;63997;52.112;5.420;2023-02-22T01:53:19;101623.44;;;6.04;91.35
75418;BME280;63997;52.112;5.420;2023-02-22T01:55:47;101625.59;;;5.97;91.33
75418;BME280;63997;52.112;5.420;2023-02-22T01:58:15;101631.38;;;5.94;90.85
75418;BME280;63997;52.112;5.420;2023-02-22T02:00:44;101634.31;;;5.93;90.86
75418;BME280;63997;52.112;5.420;2023-02-22T02:03:14;101631.94;;;5.91;90.75
75418;BME280;63997;52.112;5.420;2023-02-22T02:05:43;101632.72;;;5.92;90.78
75418;BME280;63997;52.112;5.420;2023-02-22T02:08:16;101624.00;;;5.91;90.79
75418;BME280;63997;52.112;5.420;2023-02-22T02:10:47;101622.69;;;5.94;90.86
75418;BME280;63997;52.112;5.420;2023-02-22T02:13:14;101618.97;;;5.95;90.99
75418;BME280;63997;52.112;5.420;2023-02-22T02:15:41;101626.66;;;5.91;91.27
75418;BME280;63997;52.112;5.420;2023-02-22T02:18:09;101616.06;;;5.86;91.10
75418;BME280;63997;52.112;5.420;2023-02-22T02:23:33;101614.25;;;5.76;90.77
75418;BME280;63997;52.112;5.420;2023-02-22T02:26:28;101600.81;;;5.73;90.81
75418;BME280;63997;52.112;5.420;2023-02-22T02:40:19;101589.72;;;5.71;90.95
75418;BME280;63997;52.112;5.420;2023-02-22T02:46:06;101583.66;;;5.60;90.54
75418;BME280;63997;52.112;5.420;2023-02-22T02:48:37;101579.44;;;5.54;90.35
75418;BME280;63997;52.112;5.420;2023-02-22T02:51:05;101582.38;;;5.47;90.29
75418;BME280;63997;52.112;5.420;2023-02-22T02:53:37;101585.53;;;5.44;90.29
75418;BME280;63997;52.112;5.420;2023-02-22T02:56:06;101576.03;;;5.43;90.43
75418;BME280;63997;52.112;5.420;2023-02-22T02:58:32;101567.34;;;5.43;90.53
75418;BME280;63997;52.112;5.420;2023-02-22T03:01:00;101572.88;;;5.36;90.46
75418;BME280;63997;52.112;5.420;2023-02-22T03:06:40;101564.19;;;5.30;90.56
75418;BME280;63997;52.112;5.420;2023-02-22T03:09:25;101566.03;;;5.30;90.72
75418;BME280;63997;52.112;5.420;2023-02-22T03:15:05;101565.53;;;5.28;90.89
75418;BME280;63997;52.112;5.420;2023-02-22T03:17:44;101561.03;;;5.28;90.89
75418;BME280;63997;52.112;5.420;2023-02-22T03:23:03;101560.25;;;5.28;90.88
75418;BME280;63997;52.112;5.420;2023-02-22T03:25:42;101556.53;;;5.29;90.82
75418;BME280;63997;52.112;5.420;2023-02-22T03:28:15;101549.16;;;5.26;90.76
75418;BME280;63997;52.112;5.420;2023-02-22T03:30:59;101555.50;;;5.25;90.68
75418;BME280;63997;52.112;5.420;2023-02-22T03:33:38;101553.63;;;5.20;90.72
75418;BME280;63997;52.112;5.420;2023-02-22T03:36:13;101540.47;;;5.15;90.62
75418;BME280;63997;52.112;5.420;2023-02-22T03:38:42;101545.22;;;5.13;90.62
75418;BME280;63997;52.112;5.420;2023-02-22T03:41:11;101544.94;;;5.10;90.65
75418;BME280;63997;52.112;5.420;2023-02-22T03:43:46;101543.91;;;5.11;90.70
75418;BME280;63997;52.112;5.420;2023-02-22T03:46:14;101539.66;;;5.10;90.84
75418;BME280;63997;52.112;5.420;2023-02-22T03:48:58;101537.31;;;5.08;90.88
75418;BME280;63997;52.112;5.420;2023-02-22T03:51:26;101536.53;;;5.02;90.97
75418;BME280;63997;52.112;5.420;2023-02-22T03:53:53;101530.19;;;4.98;91.09
75418;BME280;63997;52.112;5.420;2023-02-22T03:56:30;101538.09;;;4.98;91.30
75418;BME280;63997;52.112;5.420;2023-02-22T03:59:06;101521.50;;;4.93;91.26
75418;BME280;63997;52.112;5.420;2023-02-22T04:01:34;101524.91;;;4.93;91.27
75418;BME280;63997;52.112;5.420;2023-02-22T04:04:02;101526.53;;;4.94;91.39
75418;BME280;63997;52.112;5.420;2023-02-22T04:06:28;101518.34;;;4.96;91.54
75418;BME280;63997;52.112;5.420;2023-02-22T04:08:55;101522.03;;;4.95;91.64
75418;BME280;63997;52.112;5.420;2023-02-22T04:11:21;101525.97;;;4.97;91.74
75418;BME280;63997;52.112;5.420;2023-02-22T04:13:48;101527.81;;;4.97;91.67
75418;BME280;63997;52.112;5.420;2023-02-22T04:16:14;101511.72;;;4.93;91.80
75418;BME280;63997;52.112;5.420;2023-02-22T04:18:41;101513.84;;;4.91;91.89
75418;BME280;63997;52.112;5.420;2023-02-22T04:21:07;101505.94;;;4.91;92.05
75418;BME280;63997;52.112;5.420;2023-02-22T04:23:34;101508.59;;;4.91;92.22
75418;BME280;63997;52.112;5.420;2023-02-22T04:26:00;101507.53;;;4.92;92.18
75418;BME280;63997;52.112;5.420;2023-02-22T04:28:27;101504.09;;;4.92;92.29
75418;BME280;63997;52.112;5.420;2023-02-22T04:30:53;101498.81;;;4.92;92.30
75418;BME280;63997;52.112;5.420;2023-02-22T04:33:19;101503.31;;;4.91;92.27
75418;BME280;63997;52.112;5.420;2023-02-22T04:35:46;101494.09;;;4.89;92.36
75418;BME280;63997;52.112;5.420;2023-02-22T04:38:12;101494.34;;;4.82;92.33
75418;BME280;63997;52.112;5.420;2023-02-22T04:40:39;101491.47;;;4.78;92.45
75418;BME280;63997;52.112;5.420;2023-02-22T04:43:05;101489.09;;;4.77;92.46
75418;BME280;63997;52.112;5.420;2023-02-22T04:45:31;101477.50;;;4.73;92.52
75418;BME280;63997;52.112;5.420;2023-02-22T04:47:58;101485.91;;;4.70;92.68
75418;BME280;63997;52.112;5.420;2023-02-22T04:50:24;101477.22;;;4.69;92.87
75418;BME280;63997;52.112;5.420;2023-02-22T04:52:50;101479.06;;;4.69;92.77
75418;BME280;63997;52.112;5.420;2023-02-22T04:55:17;101470.09;;;4.70;93.05
75418;BME280;63997;52.112;5.420;2023-02-22T04:57:43;101466.41;;;4.71;92.96
75418;BME280;63997;52.112;5.420;2023-02-22T05:00:14;101460.34;;;4.70;93.05
75418;BME280;63997;52.112;5.420;2023-02-22T05:02:41;101459.31;;;4.66;93.23
75418;BME280;63997;52.112;5.420;2023-02-22T05:05:08;101458.53;;;4.66;93.25
75418;BME280;63997;52.112;5.420;2023-02-22T05:07:34;101458.00;;;4.64;93.31
75418;BME280;63997;52.112;5.420;2023-02-22T05:10:00;101455.63;;;4.62;93.51
75418;BME280;63997;52.112;5.420;2023-02-22T05:12:28;101448.50;;;4.63;93.52
75418;BME280;63997;52.112;5.420;2023-02-22T05:14:54;101449.31;;;4.63;93.46
75418;BME280;63997;52.112;5.420;2023-02-22T05:17:20;101446.41;;;4.65;93.65
75418;BME280;63997;52.112;5.420;2023-02-22T05:19:47;101445.88;;;4.68;93.73
75418;BME280;63997;52.112;5.420;2023-02-22T05:22:13;101441.41;;;4.68;93.72
75418;BME280;63997;52.112;5.420;2023-02-22T05:24:39;101450.59;;;4.71;93.83
75418;BME280;63997;52.112;5.420;2023-02-22T05:27:06;101441.69;;;4.72;93.85
75418;BME280;63997;52.112;5.420;2023-02-22T05:29:32;101451.16;;;4.73;93.90
75418;BME280;63997;52.112;5.420;2023-02-22T05:31:59;101441.41;;;4.68;93.70
75418;BME280;63997;52.112;5.420;2023-02-22T05:34:27;101444.03;;;4.63;93.81
75418;BME280;63997;52.112;5.420;2023-02-22T05:36:54;101436.13;;;4.63;93.85
75418;BME280;63997;52.112;5.420;2023-02-22T05:39:20;101440.59;;;4.63;94.00
75418;BME280;63997;52.112;5.420;2023-02-22T05:41:46;101441.66;;;4.62;94.09
75418;BME280;63997;52.112;5.420;2023-02-22T05:44:13;101437.19;;;4.62;94.11
75418;BME280;63997;52.112;5.420;2023-02-22T05:46:39;101431.91;;;4.62;94.20
75418;BME280;63997;52.112;5.420;2023-02-22T05:49:05;101432.72;;;4.63;94.38
75418;BME280;63997;52.112;5.420;2023-02-22T05:51:32;101422.16;;;4.63;94.44
75418;BME280;63997;52.112;5.420;2023-02-22T05:53:58;101434.56;;;4.62;94.45
75418;BME280;63997;52.112;5.420;2023-02-22T05:56:27;101429.56;;;4.61;94.69
75418;BME280;63997;52.112;5.420;2023-02-22T05:58:54;101425.88;;;4.62;94.71
75418;BME280;63997;52.112;5.420;2023-02-22T06:01:20;101419.03;;;4.61;94.89
75418;BME280;63997;52.112;5.420;2023-02-22T06:03:48;101416.38;;;4.61;94.95
75418;BME280;63997;52.112;5.420;2023-02-22T06:06:16;101415.31;;;4.62;94.92
75418;BME280;63997;52.112;5.420;2023-02-22T06:08:42;101412.69;;;4.62;95.29
75418;BME280;63997;52.112;5.420;2023-02-22T06:11:09;101409.50;;;4.65;95.22
75418;BME280;63997;52.112;5.420;2023-02-22T06:13:36;101403.47;;;4.64;95.11
75418;BME280;63997;52.112;5.420;2023-02-22T06:16:03;101402.66;;;4.64;95.12
75418;BME280;63997;52.112;5.420;2023-02-22T06:18:29;101402.66;;;4.64;95.18
75418;BME280;63997;52.112;5.420;2023-02-22T06:20:57;101397.41;;;4.64;95.37
75418;BME280;63997;52.112;5.420;2023-02-22T06:23:24;101400.59;;;4.66;95.44
75418;BME280;63997;52.112;5.420;2023-02-22T06:25:51;101406.88;;;4.65;95.34
75418;BME280;63997;52.112;5.420;2023-02-22T06:28:17;101411.63;;;4.63;95.50
75418;BME280;63997;52.112;5.420;2023-02-22T06:30:44;101409.00;;;4.63;95.42
75418;BME280;63997;52.112;5.420;2023-02-22T06:33:11;101414.78;;;4.65;95.47
75418;BME280;63997;52.112;5.420;2023-02-22T06:35:37;101417.69;;;4.63;95.58
75418;BME280;63997;52.112;5.420;2023-02-22T06:38:04;101411.63;;;4.63;95.66
75418;BME280;63997;52.112;5.420;2023-02-22T06:40:30;101410.31;;;4.65;95.70
75418;BME280;63997;52.112;5.420;2023-02-22T06:42:57;101406.63;;;4.66;95.68
75418;BME280;63997;52.112;5.420;2023-02-22T06:45:25;101401.09;;;4.63;95.79
75418;BME280;63997;52.112;5.420;2023-02-22T06:47:51;101401.09;;;4.63;95.75
75418;BME280;63997;52.112;5.420;2023-02-22T06:50:22;101385.28;;;4.63;95.78
75418;BME280;63997;52.112;5.420;2023-02-22T06:52:49;101385.28;;;4.63;95.76
75418;BME280;63997;52.112;5.420;2023-02-22T06:55:21;101386.34;;;4.67;96.00
75418;BME280;63997;52.112;5.420;2023-02-22T06:57:48;101393.47;;;4.66;96.00
75418;BME280;63997;52.112;5.420;2023-02-22T07:00:17;101381.31;;;4.65;95.96
75418;BME280;63997;52.112;5.420;2023-02-22T07:02:45;101389.22;;;4.65;95.80
75418;BME280;63997;52.112;5.420;2023-02-22T07:05:12;101395.56;;;4.64;95.80
75418;BME280;63997;52.112;5.420;2023-02-22T07:07:38;101392.13;;;4.64;95.94
75418;BME280;63997;52.112;5.420;2023-02-22T07:10:07;101389.22;;;4.65;96.09
75418;BME280;63997;52.112;5.420;2023-02-22T07:12:34;101377.91;;;4.65;96.05
75418;BME280;63997;52.112;5.420;2023-02-22T07:15:00;101392.69;;;4.66;96.10
75418;BME280;63997;52.112;5.420;2023-02-22T07:17:27;101391.06;;;4.70;96.10
75418;BME280;63997;52.112;5.420;2023-02-22T07:19:53;101387.13;;;4.72;96.27
75418;BME280;63997;52.112;5.420;2023-02-22T07:22:20;101397.41;;;4.74;96.15
75418;BME280;63997;52.112;5.420;2023-02-22T07:24:46;101385.81;;;4.70;96.11
75418;BME280;63997;52.112;5.420;2023-02-22T07:27:13;101394.25;;;4.67;96.03
75418;BME280;63997;52.112;5.420;2023-02-22T07:29:41;101394.50;;;4.65;96.21
75418;BME280;63997;52.112;5.420;2023-02-22T07:32:08;101392.41;;;4.67;96.27
75418;BME280;63997;52.112;5.420;2023-02-22T07:34:35;101397.91;;;4.71;96.37
75418;BME280;63997;52.112;5.420;2023-02-22T07:37:02;101385.56;;;4.71;96.39
75418;BME280;63997;52.112;5.420;2023-02-22T07:39:28;101401.09;;;4.73;96.29
75418;BME280;63997;52.112;5.420;2023-02-22T07:41:55;101401.59;;;4.70;96.13
75418;BME280;63997;52.112;5.420;2023-02-22T07:44:21;101394.25;;;4.72;96.25
75418;BME280;63997;52.112;5.420;2023-02-22T07:46:48;101391.06;;;4.75;96.31
75418;BME280;63997;52.112;5.420;2023-02-22T07:49:15;101397.38;;;4.79;96.27
75418;BME280;63997;52.112;5.420;2023-02-22T07:51:42;101402.13;;;4.82;96.30
75418;BME280;63997;52.112;5.420;2023-02-22T07:54:08;101401.88;;;4.84;96.26
75418;BME280;63997;52.112;5.420;2023-02-22T07:56:35;101404.22;;;4.85;96.36
75418;BME280;63997;52.112;5.420;2023-02-22T07:59:01;101414.78;;;4.85;96.19
75418;BME280;63997;52.112;5.420;2023-02-22T08:01:27;101414.78;;;4.85;96.36
75418;BME280;63997;52.112;5.420;2023-02-22T08:03:54;101409.22;;;4.87;96.28
75418;BME280;63997;52.112;5.420;2023-02-22T08:06:21;101406.59;;;4.87;96.19
75418;BME280;63997;52.112;5.420;2023-02-22T08:08:50;101403.72;;;4.88;96.32
75418;BME280;63997;52.112;5.420;2023-02-22T08:11:17;101413.19;;;4.89;96.33
75418;BME280;63997;52.112;5.420;2023-02-22T08:13:44;101416.84;;;4.93;96.39
75418;BME280;63997;52.112;5.420;2023-02-22T08:16:10;101404.72;;;4.97;96.43
75418;BME280;63997;52.112;5.420;2023-02-22T08:18:37;101402.09;;;4.97;96.35
75418;BME280;63997;52.112;5.420;2023-02-22T08:21:04;101404.22;;;4.95;96.33
75418;BME280;63997;52.112;5.420;2023-02-22T08:23:30;101410.53;;;4.99;96.41
75418;BME280;63997;52.112;5.420;2023-02-22T08:26:09;101409.22;;;5.02;96.41
75418;BME280;63997;52.112;5.420;2023-02-22T08:28:40;101408.91;;;5.09;96.39
75418;BME280;63997;52.112;5.420;2023-02-22T08:31:07;101408.13;;;5.08;96.42
75418;BME280;63997;52.112;5.420;2023-02-22T08:33:34;101403.66;;;5.09;96.39
75418;BME280;63997;52.112;5.420;2023-02-22T08:36:00;101390.19;;;5.10;96.18
75418;BME280;63997;52.112;5.420;2023-02-22T08:38:30;101397.31;;;5.10;96.13
75418;BME280;63997;52.112;5.420;2023-02-22T08:41:00;101405.50;;;5.13;96.09
75418;BME280;63997;52.112;5.420;2023-02-22T08:43:26;101405.50;;;5.13;96.04
75418;BME280;63997;52.112;5.420;2023-02-22T08:45:54;101407.59;;;5.16;95.94
75418;BME280;63997;52.112;5.420;2023-02-22T08:48:22;101400.97;;;5.24;96.06
75418;BME280;63997;52.112;5.420;2023-02-22T08:50:49;101404.91;;;5.26;95.98
75418;BME280;63997;52.112;5.420;2023-02-22T08:53:16;101396.97;;;5.31;96.02
75418;BME280;63997;52.112;5.420;2023-02-22T08:55:43;101405.66;;;5.37;96.00
75418;BME280;63997;52.112;5.420;2023-02-22T08:58:10;101388.25;;;5.41;95.93
75418;BME280;63997;52.112;5.420;2023-02-22T09:00:38;101384.00;;;5.50;95.81
75418;BME280;63997;52.112;5.420;2023-02-22T09:03:11;101384.22;;;5.54;95.70
75418;BME280;63997;52.112;5.420;2023-02-22T09:05:42;101379.72;;;5.60;95.48
75418;BME280;63997;52.112;5.420;2023-02-22T09:08:09;101370.72;;;5.66;95.52
75418;BME280;63997;52.112;5.420;2023-02-22T09:10:36;101369.38;;;5.73;95.19
75418;BME280;63997;52.112;5.420;2023-02-22T09:13:02;101372.47;;;5.80;95.16
75418;BME280;63997;52.112;5.420;2023-02-22T09:15:30;101367.47;;;5.84;94.98
75418;BME280;63997;52.112;5.420;2023-02-22T09:17:57;101365.81;;;5.88;94.95
75418;BME280;63997;52.112;5.420;2023-02-22T09:20:25;101356.59;;;5.91;94.73
75418;BME280;63997;52.112;5.420;2023-02-22T09:22:52;101360.53;;;5.93;94.67
75418;BME280;63997;52.112;5.420;2023-02-22T09:25:18;101359.97;;;6.01;94.80
75418;BME280;63997;52.112;5.420;2023-02-22T09:27:48;101372.84;;;6.08;94.53
75418;BME280;63997;52.112;5.420;2023-02-22T09:30:27;101370.97;;;6.14;94.38
75418;BME280;63997;52.112;5.420;2023-02-22T09:33:00;101368.56;;;6.17;94.21
75418;BME280;63997;52.112;5.420;2023-02-22T09:35:27;101362.47;;;6.17;94.09
75418;BME280;63997;52.112;5.420;2023-02-22T09:37:58;101357.72;;;6.19;93.85
75418;BME280;63997;52.112;5.420;2023-02-22T09:40:27;101358.81;;;6.18;93.73
75418;BME280;63997;52.112;5.420;2023-02-22T09:45:53;101356.84;;;6.28;93.51
75418;BME280;63997;52.112;5.420;2023-02-22T09:48:23;101355.19;;;6.38;93.46
75418;BME280;63997;52.112;5.420;2023-02-22T09:50:52;101345.06;;;6.45;93.23
75418;BME280;63997;52.112;5.420;2023-02-22T09:53:37;101331.28;;;6.53;92.96
75418;BME280;63997;52.112;5.420;2023-02-22T09:56:09;101326.94;;;6.62;92.74
75418;BME280;63997;52.112;5.420;2023-02-22T09:58:43;101332.97;;;6.68;92.60
75418;BME280;63997;52.112;5.420;2023-02-22T10:01:25;101331.34;;;6.72;92.16
75418;BME280;63997;52.112;5.420;2023-02-22T10:04:01;101327.56;;;6.78;92.26
75418;BME280;63997;52.112;5.420;2023-02-22T10:06:31;101317.38;;;6.90;92.13
75418;BME280;63997;52.112;5.420;2023-02-22T10:09:00;101321.94;;;7.08;91.78
75418;BME280;63997;52.112;5.420;2023-02-22T10:14:45;101312.88;;;7.33;91.00
75418;BME280;63997;52.112;5.420;2023-02-22T10:17:23;101307.03;;;7.36;90.92
75418;BME280;63997;52.112;5.420;2023-02-22T10:20:34;101304.53;;;7.45;90.69
75418;BME280;63997;52.112;5.420;2023-02-22T10:26:07;101322.84;;;7.60;89.65
75418;BME280;63997;52.112;5.420;2023-02-22T10:31:36;101308.81;;;7.79;89.14
75418;BME280;63997;52.112;5.420;2023-02-22T10:34:12;101309.44;;;7.89;88.99
75418;BME280;63997;52.112;5.420;2023-02-22T10:36:41;101314.56;;;8.00;88.99
75418;BME280;63997;52.112;5.420;2023-02-22T10:39:31;101305.25;;;8.02;88.23
75418;BME280;63997;52.112;5.420;2023-02-22T10:42:03;101306.16;;;8.11;88.65
75418;BME280;63997;52.112;5.420;2023-02-22T10:44:37;101302.44;;;8.12;87.82
75418;BME280;63997;52.112;5.420;2023-02-22T10:47:10;101309.81;;;8.15;87.94
75418;BME280;63997;52.112;5.420;2023-02-22T10:49:46;101306.78;;;8.22;87.66
75418;BME280;63997;52.112;5.420;2023-02-22T10:52:35;101313.47;;;8.19;87.25
75418;BME280;63997;52.112;5.420;2023-02-22T10:55:02;101314.03;;;8.16;87.34
75418;BME280;63997;52.112;5.420;2023-02-22T10:57:45;101306.09;;;8.16;87.29
75418;BME280;63997;52.112;5.420;2023-02-22T11:02:57;101309.75;;;8.20;86.99
75418;BME280;63997;52.112;5.420;2023-02-22T11:05:38;101300.72;;;8.21;86.77
75418;BME280;63997;52.112;5.420;2023-02-22T11:10:48;101299.94;;;8.35;86.36
75418;BME280;63997;52.112;5.420;2023-02-22T11:15:54;101295.88;;;8.56;86.49
75418;BME280;63997;52.112;5.420;2023-02-22T11:18:26;101291.56;;;8.60;86.01
75418;BME280;63997;52.112;5.420;2023-02-22T11:21:00;101289.50;;;8.57;86.06
75418;BME280;63997;52.112;5.420;2023-02-22T11:23:28;101287.34;;;8.59;86.62
75418;BME280;63997;52.112;5.420;2023-02-22T11:26:07;101287.03;;;8.61;86.40
75418;BME280;63997;52.112;5.420;2023-02-22T11:28:35;101289.38;;;8.62;86.03
75418;BME280;63997;52.112;5.420;2023-02-22T11:31:14;101290.38;;;8.66;86.39
75418;BME280;63997;52.112;5.420;2023-02-22T11:33:50;101287.44;;;8.68;85.21
75418;BME280;63997;52.112;5.420;2023-02-22T11:36:40;101284.00;;;8.67;84.73
75418;BME280;63997;52.112;5.420;2023-02-22T11:39:29;101281.34;;;8.67;84.84
75418;BME280;63997;52.112;5.420;2023-02-22T11:45:06;101273.88;;;8.69;84.80
75418;BME280;63997;52.112;5.420;2023-02-22T11:47:35;101273.28;;;8.72;84.57
75418;BME280;63997;52.112;5.420;2023-02-22T11:50:09;101270.06;;;8.76;85.03
75418;BME280;63997;52.112;5.420;2023-02-22T11:52:41;101263.38;;;8.78;84.43
75418;BME280;63997;52.112;5.420;2023-02-22T11:55:25;101266.81;;;8.79;84.29
75418;BME280;63997;52.112;5.420;2023-02-22T11:58:32;101256.19;;;8.79;84.31
75418;BME280;63997;52.112;5.420;2023-02-22T12:01:22;101249.31;;;8.78;84.32
75418;BME280;63997;52.112;5.420;2023-02-22T12:03:55;101252.56;;;8.74;84.31
75418;BME280;63997;52.112;5.420;2023-02-22T12:09:26;101248.94;;;8.70;84.26
75418;BME280;63997;52.112;5.420;2023-02-22T12:15:07;101247.66;;;8.68;84.59
75418;BME280;63997;52.112;5.420;2023-02-22T12:17:41;101253.25;;;8.66;84.96
75418;BME280;63997;52.112;5.420;2023-02-22T12:20:44;101251.28;;;8.72;85.32
75418;BME280;63997;52.112;5.420;2023-02-22T12:26:08;101244.50;;;8.80;85.60
75418;BME280;63997;52.112;5.420;2023-02-22T12:28:39;101244.22;;;8.81;85.48
75418;BME280;63997;52.112;5.420;2023-02-22T12:31:36;101240.75;;;8.81;85.26
75418;BME280;63997;52.112;5.420;2023-02-22T12:34:12;101244.41;;;8.85;85.45
75418;BME280;63997;52.112;5.420;2023-02-22T12:36:46;101240.88;;;8.89;85.13
75418;BME280;63997;52.112;5.420;2023-02-22T12:39:29;101228.28;;;8.95;84.80
75418;BME280;63997;52.112;5.420;2023-02-22T12:44:59;101216.06;;;9.08;84.57
75418;BME280;63997;52.112;5.420;2023-02-22T12:47:36;101224.69;;;9.13;84.93
75418;BME280;63997;52.112;5.420;2023-02-22T12:50:25;101226.13;;;9.19;84.27
75418;BME280;63997;52.112;5.420;2023-02-22T12:52:55;101226.66;;;9.21;83.99
75418;BME280;63997;52.112;5.420;2023-02-22T12:55:25;101223.09;;;9.26;84.15
75418;BME280;63997;52.112;5.420;2023-02-22T12:58:00;101223.75;;;9.32;84.02
75418;BME280;63997;52.112;5.420;2023-02-22T13:00:47;101214.59;;;9.38;84.06
75418;BME280;63997;52.112;5.420;2023-02-22T13:05:55;101217.25;;;9.38;83.56
75418;BME280;63997;52.112;5.420;2023-02-22T13:08:47;101216.47;;;9.37;83.95
75418;BME280;63997;52.112;5.420;2023-02-22T13:11:25;101215.81;;;9.32;83.23
75418;BME280;63997;52.112;5.420;2023-02-22T13:19:37;101223.25;;;9.30;83.24
75418;BME280;63997;52.112;5.420;2023-02-22T13:22:19;101222.06;;;9.36;83.24
75418;BME280;63997;52.112;5.420;2023-02-22T13:25:01;101219.28;;;9.41;83.69
75418;BME280;63997;52.112;5.420;2023-02-22T13:27:39;101216.03;;;9.44;82.98
75418;BME280;63997;52.112;5.420;2023-02-22T13:30:22;101210.53;;;9.40;82.92
75418;BME280;63997;52.112;5.420;2023-02-22T13:33:20;101212.31;;;9.45;83.35
75418;BME280;63997;52.112;5.420;2023-02-22T13:38:48;101213.44;;;9.52;83.74
75418;BME280;63997;52.112;5.420;2023-02-22T13:47:29;101205.03;;;9.59;83.44
75418;BME280;63997;52.112;5.420;2023-02-22T13:52:47;101213.63;;;9.56;82.96
75418;BME280;63997;52.112;5.420;2023-02-22T13:55:18;101216.09;;;9.52;82.78
75418;BME280;63997;52.112;5.420;2023-02-22T13:57:47;101212.19;;;9.50;82.52
75418;BME280;63997;52.112;5.420;2023-02-22T14:02:59;101215.44;;;9.47;82.70
75418;BME280;63997;52.112;5.420;2023-02-22T14:08:06;101219.47;;;9.44;82.23
75418;BME280;63997;52.112;5.420;2023-02-22T14:13:09;101222.44;;;9.43;82.41
75418;BME280;63997;52.112;5.420;2023-02-22T14:18:24;101229.91;;;9.41;82.79
75418;BME280;63997;52.112;5.420;2023-02-22T14:21:13;101233.19;;;9.38;82.48
75418;BME280;63997;52.112;5.420;2023-02-22T14:23:41;101235.34;;;9.36;82.85
75418;BME280;63997;52.112;5.420;2023-02-22T14:26:15;101239.56;;;9.37;83.25
75418;BME280;63997;52.112;5.420;2023-02-22T14:31:24;101232.50;;;9.32;83.08
75418;BME280;63997;52.112;5.420;2023-02-22T14:34:16;101231.72;;;9.32;83.24
75418;BME280;63997;52.112;5.420;2023-02-22T14:36:53;101242.03;;;9.33;82.98
75418;BME280;63997;52.112;5.420;2023-02-22T14:39:34;101240.34;;;9.37;83.53
75418;BME280;63997;52.112;5.420;2023-02-22T14:42:21;101235.72;;;9.43;83.63
75418;BME280;63997;52.112;5.420;2023-02-22T14:47:47;101239.94;;;9.44;82.91
75418;BME280;63997;52.112;5.420;2023-02-22T14:50:21;101237.28;;;9.44;83.04
75418;BME280;63997;52.112;5.420;2023-02-22T14:52:58;101237.75;;;9.46;83.13
75418;BME280;63997;52.112;5.420;2023-02-22T14:55:29;101234.00;;;9.47;83.27
75418;BME280;63997;52.112;5.420;2023-02-22T14:58:01;101233.22;;;9.46;83.02
75418;BME280;63997;52.112;5.420;2023-02-22T15:00:38;101235.88;;;9.46;83.13